Time;durP1;ratioP1;P1;durP2;ratioP2;P2;SDS_P1;SDS_P2;PMS_P1;PMS_P2;Temp;Humidity;BMP_temperature;BMP_pressure;BME280_temperature;BME280_humidity;BME280_pressure;Samples;Min_cycle;Max_cycle;Signal;HPM_P1;HPM_P2
2022/01/29 09:05:12;;;;;;;15.63;6.18;;;9.00;99.90;;;;;;5125894;27;1260124;-62
2022/01/29 09:08:17;;;;;;;14.10;5.75;;;9.00;99.90;;;;;;5127685;27;20058;-63
2022/01/29 09:10:43;;;;;;;12.50;5.20;;;9.00;99.90;;;;;;5041495;28;20428;-62
2022/01/29 09:13:10;;;;;;;18.30;6.13;;;9.00;99.90;;;;;;5047878;28;20041;-62
2022/01/29 09:15:36;;;;;;;12.40;5.90;;;9.00;99.90;;;;;;5080851;28;20051;-62
2022/01/29 09:18:03;;;;;;;17.17;6.15;;;9.00;99.90;;;;;;5121730;28;20201;-62
2022/01/29 09:20:28;;;;;;;;;;;8.90;99.90;;;;;;5120414;28;20044;-60
2022/01/29 09:22:54;;;;;;;12.63;4.88;;;9.00;99.90;;;;;;5110325;28;20329;-62
2022/01/29 09:25:20;;;;;;;14.77;4.75;;;9.00;99.90;;;;;;5131747;28;20040;-62
2022/01/29 09:27:45;;;;;;;11.20;4.53;;;9.00;99.90;;;;;;5131269;28;20043;-63
2022/01/29 09:30:11;;;;;;;14.85;4.78;;;9.00;99.90;;;;;;5112210;28;20083;-62
2022/01/29 09:32:37;;;;;;;18.85;4.45;;;9.00;99.90;;;;;;5130396;28;20078;-61
2022/01/29 09:35:04;;;;;;;12.73;4.13;;;9.00;99.90;;;;;;5130968;28;20475;-62
2022/01/29 09:37:30;;;;;;;17.08;4.60;;;9.00;99.90;;;;;;5131118;28;20104;-62
2022/01/29 09:39:55;;;;;;;13.75;4.20;;;9.10;99.90;;;;;;5113782;28;20100;-62
2022/01/29 09:42:21;;;;;;;12.77;4.00;;;9.10;99.90;;;;;;5112918;28;20048;-62
2022/01/29 09:44:48;;;;;;;15.43;4.47;;;9.20;99.90;;;;;;5112987;28;20044;-62
2022/01/29 09:47:17;;;;;;;16.13;4.03;;;9.20;99.90;;;;;;5129994;28;20051;-62
2022/01/29 09:49:44;;;;;;;11.13;4.45;;;9.20;99.90;;;;;;5130785;28;20051;-62
2022/01/29 09:52:10;;;;;;;14.85;3.75;;;9.20;99.90;;;;;;5130885;28;20143;-64
2022/01/29 09:54:36;;;;;;;11.73;3.47;;;9.20;99.90;;;;;;5131023;28;20521;-63
2022/01/29 09:57:02;;;;;;;15.32;4.25;;;9.20;99.90;;;;;;5131119;28;20054;-63
2022/01/29 09:59:27;;;;;;;14.20;3.35;;;9.30;99.90;;;;;;5131125;28;20395;-61
2022/01/29 10:01:53;;;;;;;15.32;3.60;;;9.30;99.90;;;;;;5131422;28;20419;-62
2022/01/29 10:04:19;;;;;;;13.00;3.45;;;9.30;99.90;;;;;;5111718;28;20486;-62
2022/01/29 10:07:05;;;;;;;14.15;3.20;;;9.40;99.90;;;;;;5112583;28;20057;-62
2022/01/29 10:09:34;;;;;;;11.70;3.30;;;9.30;99.90;;;;;;5130775;28;20047;-62
2022/01/29 10:12:37;;;;;;;12.90;3.20;;;9.30;99.90;;;;;;5130755;28;20039;-62
2022/01/29 10:15:09;;;;;;;11.45;2.90;;;9.40;99.90;;;;;;5022693;28;20154;-62
2022/01/29 10:17:48;;;;;;;10.90;3.33;;;9.40;99.90;;;;;;5101317;28;20059;-63
2022/01/29 10:20:15;;;;;;;13.52;2.95;;;9.40;99.90;;;;;;5117605;28;20069;-64
2022/01/29 10:22:43;;;;;;;13.05;3.58;;;9.50;99.90;;;;;;5116890;28;20047;-62
2022/01/29 10:25:16;;;;;;;9.48;2.90;;;9.50;99.90;;;;;;5116805;28;20040;-61
2022/01/29 10:28:18;;;;;;;10.75;2.88;;;9.50;99.90;;;;;;5098863;28;20051;-63
2022/01/29 10:30:50;;;;;;;9.75;2.42;;;9.50;99.90;;;;;;5116750;28;20097;-61
2022/01/29 10:33:28;;;;;;;9.88;2.78;;;9.60;99.90;;;;;;5116642;28;20043;-61
2022/01/29 10:36:04;;;;;;;14.63;3.13;;;9.60;99.90;;;;;;5099278;28;20058;-62
2022/01/29 10:38:44;;;;;;;10.02;2.60;;;9.70;99.90;;;;;;5117242;28;20052;-61
2022/01/29 10:41:25;;;;;;;19.25;4.95;;;9.70;99.90;;;;;;5098517;28;20059;-61
2022/01/29 10:46:58;;;;;;;12.13;2.63;;;9.70;99.90;;;;;;5096303;28;20047;-61
2022/01/29 10:49:23;;;;;;;7.63;2.45;;;9.70;99.90;;;;;;5078456;28;20063;-63
2022/01/29 10:52:04;;;;;;;13.70;3.20;;;9.70;99.90;;;;;;5104126;28;20391;-62
2022/01/29 10:54:32;;;;;;;15.07;2.85;;;9.70;99.90;;;;;;5106931;28;20047;-62
2022/01/29 10:56:58;;;;;;;10.50;2.63;;;9.70;99.90;;;;;;5106499;28;20039;-62
2022/01/29 10:59:25;;;;;;;12.52;3.00;;;9.70;99.90;;;;;;5107076;28;20055;-62
2022/01/29 11:02:08;;;;;;;12.60;3.10;;;9.80;99.90;;;;;;5107275;28;20050;-63
2022/01/29 11:04:37;;;;;;;10.60;2.60;;;9.80;99.90;;;;;;5091193;28;20059;-62
2022/01/29 11:07:08;;;;;;;11.00;2.75;;;9.80;99.90;;;;;;5108094;28;20503;-62
2022/01/29 11:09:34;;;;;;;12.52;3.05;;;9.80;99.90;;;;;;5105999;28;20075;-62
2022/01/29 11:12:04;;;;;;;11.30;2.53;;;9.80;99.90;;;;;;5107092;28;20082;-62
2022/01/29 11:14:31;;;;;;;9.48;2.38;;;9.80;99.90;;;;;;5104956;28;20379;-62
2022/01/29 11:16:59;;;;;;;13.57;2.75;;;9.80;99.90;;;;;;5103778;28;20048;-62
2022/01/29 11:19:25;;;;;;;13.25;2.97;;;9.70;99.90;;;;;;5105494;28;20078;-61
2022/01/29 11:21:54;;;;;;;13.73;2.83;;;9.80;99.90;;;;;;5110809;28;20506;-61
2022/01/29 11:24:23;;;;;;;9.77;2.65;;;9.90;99.90;;;;;;5095211;28;20101;-62
2022/01/29 11:26:50;;;;;;;15.30;2.58;;;9.90;99.90;;;;;;5102468;28;20043;-62
2022/01/29 11:29:22;;;;;;;7.65;2.40;;;10.10;99.90;;;;;;5115589;28;20394;-63
2022/01/29 11:31:48;;;;;;;5.72;1.98;;;9.90;99.90;;;;;;5115653;28;20051;-61
2022/01/29 11:34:14;;;;;;;8.65;2.60;;;10.00;99.90;;;;;;5097294;28;20386;-62
2022/01/29 11:36:48;;;;;;;14.27;2.33;;;10.10;99.90;;;;;;5115429;28;20054;-62
2022/01/29 11:39:20;;;;;;;10.52;2.03;;;10.10;99.90;;;;;;5106995;28;20054;-62
2022/01/29 11:42:06;;;;;;;12.48;2.30;;;10.10;99.90;;;;;;5094685;28;20058;-61
2022/01/29 11:44:31;;;;;;;9.52;2.30;;;10.20;99.90;;;;;;5115309;28;20120;-62
2022/01/29 11:47:26;;;;;;;11.27;2.50;;;10.20;99.90;;;;;;5115207;28;20047;-61
2022/01/29 11:50:13;;;;;;;9.15;2.35;;;10.30;99.90;;;;;;5115088;28;20437;-63
2022/01/29 11:53:00;;;;;;;11.45;2.03;;;10.20;99.90;;;;;;5114826;28;20051;-62
2022/01/29 11:55:44;;;;;;;11.77;2.17;;;10.30;99.90;;;;;;5115405;28;20040;-62
2022/01/29 11:58:13;;;;;;;9.13;2.13;;;10.30;99.90;;;;;;5115160;28;20487;-61
2022/01/29 12:00:40;;;;;;;13.85;2.47;;;10.30;99.90;;;;;;5114960;28;20094;-60
2022/01/29 12:03:06;;;;;;;9.77;2.08;;;10.30;99.90;;;;;;5115262;28;20048;-60
2022/01/29 12:09:19;;;;;;;10.82;2.20;;;10.30;99.90;;;;;;5093667;28;20048;-62
2022/01/29 12:12:20;;;;;;;11.30;2.22;;;10.30;99.90;;;;;;5093584;28;20070;-62
2022/01/29 12:14:48;;;;;;;8.20;2.47;;;10.30;99.90;;;;;;5093189;28;20523;-61
2022/01/29 12:17:33;;;;;;;11.98;2.40;;;10.30;99.90;;;;;;5094102;28;20138;-61
2022/01/29 12:19:59;;;;;;;9.10;2.50;;;10.30;99.90;;;;;;5095126;28;20048;-61
2022/01/29 12:22:26;;;;;;;;;;;10.30;99.90;;;;;;5094554;28;20052;-61
2022/01/29 12:24:57;;;;;;;10.52;2.08;;;10.40;99.90;;;;;;5094356;28;19982;-62
2022/01/29 12:27:38;;;;;;;10.77;2.22;;;10.40;99.90;;;;;;5093929;28;20146;-62
2022/01/29 12:30:04;;;;;;;9.25;2.08;;;10.40;99.90;;;;;;5093928;28;20109;-62
2022/01/29 12:32:30;;;;;;;8.85;2.10;;;10.50;99.90;;;;;;5093951;28;20044;-60
2022/01/29 12:34:55;;;;;;;8.52;1.85;;;10.50;99.90;;;;;;5094249;28;20036;-61
2022/01/29 12:37:21;;;;;;;14.63;2.53;;;10.60;99.90;;;;;;5092649;28;20040;-61
2022/01/29 12:39:49;;;;;;;17.58;2.30;;;10.60;99.90;;;;;;5094203;28;20079;-61
2022/01/29 12:44:41;;;;;;;;;;;10.60;99.90;;;;;;5073910;28;20052;-62
2022/01/29 12:47:07;;;;;;;18.05;2.65;;;10.60;99.90;;;;;;5072464;28;20015;-62
2022/01/29 12:49:43;;;;;;;13.60;2.58;;;10.60;99.90;;;;;;5072603;28;20508;-61
2022/01/29 12:52:14;;;;;;;11.02;2.72;;;10.60;99.90;;;;;;5074173;28;20048;-62
2022/01/29 12:54:49;;;;;;;8.73;2.03;;;10.50;99.90;;;;;;5073936;28;20051;-62
2022/01/29 12:57:15;;;;;;;11.30;2.50;;;10.50;99.90;;;;;;5072628;28;20048;-62
2022/01/29 12:59:40;;;;;;;13.45;2.28;;;10.50;99.90;;;;;;5072249;28;20053;-62
2022/01/29 13:02:06;;;;;;;9.05;2.05;;;10.50;99.90;;;;;;5072684;28;20048;-63
2022/01/29 13:04:32;;;;;;;16.17;2.00;;;10.50;99.90;;;;;;5074174;28;20124;-63
2022/01/29 13:07:06;;;;;;;9.70;2.30;;;10.50;99.90;;;;;;5075819;28;20056;-62
2022/01/29 13:09:34;;;;;;;14.30;2.47;;;10.50;99.90;;;;;;5093616;28;20056;-63
2022/01/29 13:12:05;;;;;;;8.73;2.25;;;10.50;99.90;;;;;;5093573;28;20051;-62
2022/01/29 13:14:32;;;;;;;11.05;2.17;;;10.50;99.90;;;;;;5093973;28;20040;-61
2022/01/29 13:17:00;;;;;;;11.23;2.00;;;10.50;99.90;;;;;;5113650;28;20562;-62
2022/01/29 13:19:28;;;;;;;10.57;1.92;;;10.40;99.90;;;;;;5112512;28;20043;-62
2022/01/29 13:22:05;;;;;;;8.15;2.15;;;10.40;99.90;;;;;;5092386;28;20058;-61
2022/01/29 13:24:35;;;;;;;12.00;2.38;;;10.50;99.90;;;;;;5114250;28;20076;-62
2022/01/29 13:27:03;;;;;;;11.00;2.45;;;10.50;99.90;;;;;;5095454;28;20086;-62
2022/01/29 13:29:33;;;;;;;8.02;2.13;;;10.50;99.90;;;;;;5113956;28;20043;-62
2022/01/29 13:32:00;;;;;;;7.47;1.90;;;10.60;99.90;;;;;;5096507;28;20118;-62
2022/01/29 13:34:36;;;;;;;11.18;2.15;;;10.60;99.90;;;;;;5095716;28;20055;-63
2022/01/29 13:37:04;;;;;;;11.43;2.30;;;10.70;99.90;;;;;;5113536;28;20051;-63
2022/01/29 13:39:46;;;;;;;10.35;1.80;;;10.80;99.90;;;;;;5113573;28;20094;-62
2022/01/29 13:42:18;;;;;;;12.80;2.03;;;10.80;99.90;;;;;;5114320;28;20054;-62
2022/01/29 13:45:05;;;;;;;7.93;2.05;;;10.90;99.90;;;;;;5114472;28;20427;-62
2022/01/29 13:47:33;;;;;;;10.23;1.85;;;11.00;99.90;;;;;;5113631;28;20077;-61
2022/01/29 13:50:22;;;;;;;9.40;1.88;;;10.90;99.90;;;;;;5095903;28;20042;-62
2022/01/29 13:53:04;;;;;;;10.55;2.00;;;11.00;99.90;;;;;;5118187;28;20516;-61
2022/01/29 13:55:31;;;;;;;10.25;1.80;;;11.00;99.90;;;;;;5117745;28;20043;-61
2022/01/29 13:58:04;;;;;;;11.82;1.48;;;11.10;99.90;;;;;;5117961;28;20052;-61
2022/01/29 14:00:50;;;;;;;8.32;1.85;;;11.10;99.90;;;;;;5117411;28;20146;-61
2022/01/29 14:03:16;;;;;;;9.52;1.90;;;11.20;99.90;;;;;;5117541;28;20378;-62
2022/01/29 14:05:42;;;;;;;13.55;1.90;;;11.20;99.90;;;;;;5107635;28;20048;-61
2022/01/29 14:08:36;;;;;;;7.63;1.67;;;11.30;99.90;;;;;;5102221;28;20060;-61
2022/01/29 14:11:03;;;;;;;6.05;1.80;;;11.20;99.90;;;;;;5107985;28;20048;-63
2022/01/29 14:13:29;;;;;;;11.20;2.03;;;11.30;99.90;;;;;;5098473;28;20048;-61
2022/01/29 14:15:54;;;;;;;9.75;2.20;;;11.20;99.90;;;;;;5105765;28;20115;-61
2022/01/29 14:18:20;;;;;;;11.88;2.35;;;11.20;99.90;;;;;;5106663;28;20515;-61
2022/01/29 14:20:46;;;;;;;11.05;2.08;;;11.10;99.90;;;;;;5104699;28;20067;-60
2022/01/29 14:23:11;;;;;;;8.93;2.28;;;11.10;99.90;;;;;;5106660;28;20560;-61
2022/01/29 14:25:37;;;;;;;10.30;1.92;;;11.00;99.90;;;;;;5106668;28;20044;-61
2022/01/29 14:28:03;;;;;;;8.02;1.75;;;11.00;99.90;;;;;;5104975;28;20047;-62
2022/01/29 14:30:29;;;;;;;9.20;1.65;;;11.00;99.90;;;;;;5107071;28;20040;-61
2022/01/29 14:32:54;;;;;;;10.63;2.20;;;11.00;99.90;;;;;;5107022;28;20088;-61
2022/01/29 14:35:20;;;;;;;10.40;2.22;;;11.00;99.90;;;;;;5083921;28;20055;-61
2022/01/29 14:37:45;;;;;;;10.82;2.10;;;11.00;99.90;;;;;;5111399;28;20036;-61
2022/01/29 14:40:14;;;;;;;8.55;2.25;;;10.90;99.90;;;;;;5109503;28;20062;-61
2022/01/29 14:42:44;;;;;;;13.20;2.30;;;10.90;99.90;;;;;;5087311;28;20040;-61
2022/01/29 14:45:13;;;;;;;12.30;2.35;;;11.00;99.90;;;;;;5113428;28;20040;-61
2022/01/29 14:47:44;;;;;;;13.07;2.38;;;10.90;99.90;;;;;;5116468;28;20051;-61
2022/01/29 14:50:09;;;;;;;8.18;1.95;;;10.90;99.90;;;;;;5116977;28;20047;-61
2022/01/29 14:52:35;;;;;;;13.30;2.53;;;10.80;99.90;;;;;;5115828;28;20084;-61
2022/01/29 14:55:01;;;;;;;12.27;2.45;;;10.80;99.90;;;;;;5115883;28;20036;-61
2022/01/29 14:57:27;;;;;;;18.27;3.20;;;10.80;99.90;;;;;;5115897;28;20047;-61
2022/01/29 14:59:52;;;;;;;14.85;2.95;;;10.80;99.90;;;;;;5098042;28;20039;-62
2022/01/29 15:02:18;;;;;;;14.98;2.92;;;10.80;99.90;;;;;;5115154;28;20484;-61
2022/01/29 15:04:53;;;;;;;13.18;2.92;;;10.80;99.90;;;;;;5097783;28;20048;-61
2022/01/29 15:07:20;;;;;;;15.80;3.17;;;10.80;99.90;;;;;;5115934;28;20055;-61
2022/01/29 15:09:47;;;;;;;14.43;3.13;;;10.80;99.90;;;;;;5115989;28;20048;-61
2022/01/29 15:12:13;;;;;;;13.48;2.40;;;10.80;99.90;;;;;;5116035;28;20055;-62
2022/01/29 15:14:39;;;;;;;18.58;2.95;;;10.80;99.90;;;;;;5096854;28;20557;-61
2022/01/29 15:17:04;;;;;;;15.63;3.25;;;10.80;99.90;;;;;;5094184;28;20087;-61
2022/01/29 15:19:30;;;;;;;20.40;3.20;;;10.80;99.90;;;;;;5095778;28;20074;-61
2022/01/29 15:21:56;;;;;;;19.85;3.17;;;10.80;99.90;;;;;;5095518;28;20044;-61
2022/01/29 15:24:23;;;;;;;20.83;3.85;;;10.80;99.90;;;;;;5095315;28;20452;-61
2022/01/29 15:26:49;;;;;;;24.65;3.80;;;10.70;99.90;;;;;;5094442;28;20094;-61
2022/01/29 15:29:14;;;;;;;21.60;3.95;;;10.70;99.90;;;;;;5095172;28;20044;-61
2022/01/29 15:31:42;;;;;;;18.27;3.65;;;10.70;99.90;;;;;;5094260;28;20052;-61
2022/01/29 15:34:08;;;;;;;18.88;3.17;;;10.70;99.90;;;;;;5094290;28;20090;-61
2022/01/29 15:36:34;;;;;;;22.70;3.85;;;10.60;99.90;;;;;;5094817;28;20051;-61
2022/01/29 15:39:01;;;;;;;20.88;4.00;;;10.60;99.90;;;;;;5100318;28;20404;-61
2022/01/29 15:41:26;;;;;;;19.02;4.53;;;10.60;99.90;;;;;;5077914;28;20087;-61
2022/01/29 15:43:52;;;;;;;21.38;4.03;;;10.60;99.90;;;;;;5104587;28;20075;-62
2022/01/29 15:46:19;;;;;;;21.35;4.13;;;10.60;99.90;;;;;;5103443;28;20048;-62
2022/01/29 15:48:45;;;;;;;24.98;3.97;;;10.60;99.90;;;;;;5087327;28;20051;-61
2022/01/29 15:51:11;;;;;;;20.98;4.43;;;10.50;99.90;;;;;;5086858;28;20035;-61
2022/01/29 15:53:37;;;;;;;25.23;4.85;;;10.60;99.90;;;;;;5105257;28;20503;-61
2022/01/29 15:56:04;;;;;;;25.85;4.38;;;10.50;99.90;;;;;;5103649;28;20047;-62
2022/01/29 15:58:29;;;;;;;28.73;4.97;;;10.40;99.90;;;;;;5099341;28;20078;-61
2022/01/29 16:00:58;;;;;;;29.67;4.45;;;10.40;99.90;;;;;;5101706;28;20468;-61
2022/01/29 16:03:24;;;;;;;28.40;4.32;;;10.30;99.90;;;;;;5085139;28;20480;-62
2022/01/29 16:05:52;;;;;;;27.05;5.68;;;10.40;99.90;;;;;;5104817;28;20043;-61
2022/01/29 16:08:20;;;;;;;23.25;4.85;;;10.30;99.90;;;;;;5104453;28;20044;-61
2022/01/29 16:10:54;;;;;;;33.15;5.57;;;10.20;99.90;;;;;;5103072;28;20032;-61
2022/01/29 16:13:21;;;;;;;32.72;5.55;;;10.20;99.90;;;;;;5102954;28;20043;-61
2022/01/29 16:15:48;;;;;;;30.60;5.75;;;10.20;99.90;;;;;;5106762;28;20088;-61
2022/01/29 16:18:14;;;;;;;28.38;5.53;;;10.20;99.90;;;;;;5104006;28;20047;-62
2022/01/29 16:20:40;;;;;;;27.58;5.80;;;10.10;99.90;;;;;;5103369;28;20043;-61
2022/01/29 16:23:06;;;;;;;33.05;5.60;;;10.10;99.90;;;;;;5102568;28;20110;-61
2022/01/29 16:25:33;;;;;;;32.20;6.10;;;10.00;99.90;;;;;;5103540;28;20039;-62
2022/01/29 16:27:59;;;;;;;33.85;5.68;;;10.00;99.90;;;;;;5079331;28;20065;-62
2022/01/29 16:30:26;;;;;;;30.90;6.28;;;9.90;99.90;;;;;;5087023;28;20411;-61
2022/01/29 16:32:53;;;;;;;34.47;6.22;;;9.80;99.90;;;;;;5104398;28;20051;-61
2022/01/29 16:35:18;;;;;;;34.00;6.22;;;9.70;99.90;;;;;;5085701;28;20438;-62
2022/01/29 16:37:44;;;;;;;30.92;5.78;;;9.70;99.90;;;;;;5110950;28;20052;-62
2022/01/29 16:40:10;;;;;;;28.77;6.00;;;9.60;99.90;;;;;;5114433;28;20047;-62
2022/01/29 16:42:36;;;;;;;;;;;9.50;99.90;;;;;;5114777;28;20080;-62
2022/01/29 16:45:03;;;;;;;33.97;5.68;;;9.50;99.90;;;;;;5114243;28;19920;-61
2022/01/29 16:47:29;;;;;;;33.17;6.72;;;9.40;99.90;;;;;;5114793;28;20126;-61
2022/01/29 16:49:55;;;;;;;30.60;6.07;;;9.40;99.90;;;;;;5114806;28;20055;-62
2022/01/29 16:52:20;;;;;;;30.63;5.63;;;9.30;99.90;;;;;;5096306;28;20123;-62
2022/01/29 16:54:46;;;;;;;29.08;5.80;;;9.30;99.90;;;;;;5114433;28;20039;-60
2022/01/29 16:57:12;;;;;;;28.33;5.95;;;9.30;99.90;;;;;;5111076;28;20036;-61
2022/01/29 16:59:38;;;;;;;35.83;6.18;;;9.20;99.90;;;;;;5105098;28;20070;-62
2022/01/29 17:02:03;;;;;;;40.28;6.13;;;9.20;99.90;;;;;;5108158;28;20515;-62
2022/01/29 17:04:29;;;;;;;41.40;6.95;;;9.20;99.90;;;;;;5101672;28;20096;-62
2022/01/29 17:06:55;;;;;;;39.60;6.53;;;9.20;99.90;;;;;;5093521;28;20056;-62
2022/01/29 17:09:20;;;;;;;35.03;6.53;;;9.10;99.90;;;;;;5096353;28;20042;-61
2022/01/29 17:11:48;;;;;;;36.25;6.10;;;9.10;99.90;;;;;;5085882;28;20396;-62
2022/01/29 17:14:14;;;;;;;32.63;6.40;;;9.10;99.90;;;;;;5101772;28;20040;-62
2022/01/29 17:16:45;;;;;;;43.08;7.85;;;9.10;99.90;;;;;;5102704;28;20036;-62
2022/01/29 17:19:12;;;;;;;33.85;6.47;;;9.00;99.90;;;;;;5102339;28;20097;-62
2022/01/29 17:21:38;;;;;;;29.80;6.32;;;8.90;99.90;;;;;;5106388;28;20105;-62
2022/01/29 17:24:04;;;;;;;36.10;6.55;;;9.00;99.90;;;;;;5084496;28;20039;-62
2022/01/29 17:26:30;;;;;;;35.90;6.82;;;9.00;99.90;;;;;;5090122;28;20039;-62
2022/01/29 17:28:56;;;;;;;28.52;5.43;;;8.90;99.90;;;;;;5105870;28;20097;-62
2022/01/29 17:31:22;;;;;;;35.78;7.28;;;9.00;99.90;;;;;;5099870;28;20062;-64
2022/01/29 17:33:47;;;;;;;35.47;6.00;;;9.00;99.90;;;;;;5097854;28;20075;-62
2022/01/29 17:36:13;;;;;;;30.33;5.97;;;8.90;99.90;;;;;;5079705;28;20051;-62
2022/01/29 17:38:39;;;;;;;28.10;5.78;;;8.90;99.90;;;;;;5097427;28;20079;-62
2022/01/29 17:41:05;;;;;;;32.88;6.30;;;;;;;;;;5097654;28;20067;-62
2022/01/29 17:43:31;;;;;;;;;;;8.80;99.90;;;;;;5097662;28;20492;-62
2022/01/29 17:45:57;;;;;;;27.23;5.97;;;8.90;99.90;;;;;;5097323;28;19942;-61
2022/01/29 17:48:22;;;;;;;33.83;6.00;;;8.80;99.90;;;;;;5097139;28;20060;-62
2022/01/29 17:50:48;;;;;;;25.60;5.38;;;8.80;99.90;;;;;;5095919;28;20040;-61
2022/01/29 17:53:14;;;;;;;26.48;5.45;;;8.70;99.90;;;;;;5097601;28;20059;-62
2022/01/29 17:55:40;;;;;;;27.35;5.72;;;8.70;99.90;;;;;;5079181;28;20046;-62
2022/01/29 17:58:09;;;;;;;28.55;6.20;;;8.70;99.90;;;;;;5096967;28;20044;-61
2022/01/29 18:00:36;;;;;;;29.98;5.20;;;8.60;99.90;;;;;;5096936;28;20051;-62
2022/01/29 18:03:02;;;;;;;32.28;5.63;;;8.60;99.90;;;;;;5096604;28;20507;-61
2022/01/29 18:05:28;;;;;;;40.28;6.82;;;8.60;99.90;;;;;;5097777;28;20094;-61
2022/01/29 18:07:53;;;;;;;33.88;5.38;;;8.70;99.90;;;;;;5096546;28;20450;-62
2022/01/29 18:10:19;;;;;;;33.20;5.97;;;8.60;99.90;;;;;;5097165;28;20056;-61
2022/01/29 18:12:48;;;;;;;28.25;5.68;;;8.60;99.90;;;;;;5097352;28;20189;-62
2022/01/29 18:15:14;;;;;;;34.60;6.10;;;8.50;99.90;;;;;;5100506;28;20400;-62
2022/01/29 18:17:41;;;;;;;35.63;6.30;;;8.50;99.90;;;;;;5107217;28;20044;-61
2022/01/29 18:20:08;;;;;;;31.45;5.78;;;8.50;99.90;;;;;;5104253;28;20052;-62
2022/01/29 18:22:33;;;;;;;36.42;6.28;;;8.50;99.90;;;;;;5105709;28;20040;-62
2022/01/29 18:24:59;;;;;;;37.60;5.70;;;8.60;99.90;;;;;;5096503;28;20483;-61
2022/01/29 18:27:29;;;;;;;40.30;6.65;;;8.50;99.90;;;;;;5096494;28;20388;-61
2022/01/29 18:29:54;;;;;;;34.72;6.13;;;8.50;99.90;;;;;;5078847;28;20114;-61
2022/01/29 18:32:22;;;;;;;26.73;5.43;;;8.50;99.90;;;;;;5096892;28;20044;-61
2022/01/29 18:34:47;;;;;;;32.22;5.38;;;8.40;99.90;;;;;;5096357;28;20472;-62
2022/01/29 18:37:13;;;;;;;29.35;5.55;;;8.40;99.90;;;;;;5096308;28;20059;-61
2022/01/29 18:39:44;;;;;;;30.35;5.75;;;8.40;99.90;;;;;;5102914;28;20050;-61
2022/01/29 18:42:11;;;;;;;26.42;4.63;;;8.30;99.90;;;;;;5099466;28;20105;-61
2022/01/29 18:44:37;;;;;;;35.45;6.03;;;8.40;99.90;;;;;;5096032;28;20214;-61
2022/01/29 18:47:03;;;;;;;28.92;4.72;;;8.40;99.90;;;;;;5104082;28;20051;-61
2022/01/29 18:49:30;;;;;;;28.52;5.30;;;8.40;99.90;;;;;;5106357;28;20052;-61
2022/01/29 18:51:55;;;;;;;;;;;8.40;99.90;;;;;;5104938;28;20456;-61
2022/01/29 18:54:21;;;;;;;29.65;5.07;;;8.30;99.90;;;;;;5110481;28;19973;-61
2022/01/29 18:56:47;;;;;;;28.02;4.95;;;8.30;99.90;;;;;;5116355;28;20083;-62
2022/01/29 18:59:12;;;;;;;27.15;5.20;;;8.30;99.90;;;;;;5116109;28;20050;-63
2022/01/29 19:01:38;;;;;;;30.33;4.95;;;8.30;99.90;;;;;;5081461;28;20085;-61
2022/01/29 19:04:06;;;;;;;33.40;5.75;;;8.30;99.90;;;;;;5098849;28;20040;-62
2022/01/29 19:06:32;;;;;;;29.98;5.13;;;8.30;99.90;;;;;;5106752;28;20083;-61
2022/01/29 19:08:58;;;;;;;27.95;5.03;;;8.30;99.90;;;;;;5113079;28;20051;-61
2022/01/29 19:11:24;;;;;;;28.00;5.28;;;8.30;99.90;;;;;;5115876;28;20116;-62
2022/01/29 19:13:49;;;;;;;28.00;5.90;;;8.30;99.90;;;;;;5115987;28;20043;-61
2022/01/29 19:16:15;;;;;;;25.63;5.07;;;8.40;99.90;;;;;;5101303;28;20048;-62
2022/01/29 19:18:43;;;;;;;25.38;4.60;;;8.30;99.90;;;;;;5095465;28;20076;-62
2022/01/29 19:21:12;;;;;;;28.27;5.32;;;8.40;99.90;;;;;;5095487;28;20446;-62
2022/01/29 19:23:41;;;;;;;26.42;5.00;;;8.40;99.90;;;;;;5103382;28;20480;-62
2022/01/29 19:26:07;;;;;;;27.45;5.18;;;8.40;99.90;;;;;;5106050;28;20050;-62
2022/01/29 19:28:33;;;;;;;30.83;5.53;;;8.40;99.90;;;;;;5104056;28;20048;-64
2022/01/29 19:30:59;;;;;;;22.10;4.65;;;8.40;99.90;;;;;;5109279;28;20047;-62
2022/01/29 19:33:25;;;;;;;20.75;4.07;;;8.40;99.90;;;;;;5115573;28;20506;-63
2022/01/29 19:35:51;;;;;;;19.50;3.65;;;8.20;99.90;;;;;;5097656;28;20039;-62
2022/01/29 19:38:16;;;;;;;11.82;2.60;;;7.80;99.90;;;;;;5115388;28;20542;-62
2022/01/29 19:40:42;;;;;;;17.38;2.90;;;7.50;99.90;;;;;;5115752;28;20119;-62
2022/01/29 19:43:08;;;;;;;18.20;3.00;;;7.30;99.90;;;;;;5115272;28;20393;-62
2022/01/29 19:45:34;;;;;;;15.75;3.20;;;7.20;99.90;;;;;;5115334;28;20051;-63
2022/01/29 19:47:59;;;;;;;11.00;2.25;;;7.10;99.90;;;;;;5114788;28;20096;-62
2022/01/29 19:50:25;;;;;;;20.95;3.28;;;7.10;99.90;;;;;;5115333;28;20043;-62
2022/01/29 19:52:54;;;;;;;15.52;3.85;;;7.00;99.90;;;;;;5097039;28;20063;-62
2022/01/29 19:55:21;;;;;;;17.98;2.88;;;7.00;99.90;;;;;;5115180;28;20044;-62
2022/01/29 19:57:48;;;;;;;19.42;3.20;;;7.00;99.90;;;;;;5115337;28;20432;-62
2022/01/29 20:00:15;;;;;;;21.73;3.50;;;7.00;99.90;;;;;;5114788;28;20483;-63
2022/01/29 20:02:43;;;;;;;17.85;3.40;;;7.00;99.90;;;;;;5115868;28;20044;-62
2022/01/29 20:05:09;;;;;;;27.08;3.88;;;7.00;99.90;;;;;;5114858;28;20043;-62
2022/01/29 20:07:35;;;;;;;21.30;3.92;;;6.90;99.90;;;;;;5114358;28;20059;-62
2022/01/29 20:10:01;;;;;;;15.90;3.42;;;6.90;99.90;;;;;;5115220;28;20126;-62
2022/01/29 20:12:26;;;;;;;;;;;7.00;99.90;;;;;;5115634;28;20047;-62
2022/01/29 20:14:52;;;;;;;26.83;4.10;;;6.90;99.90;;;;;;5111781;28;20033;-62
2022/01/29 20:17:18;;;;;;;19.95;4.15;;;6.90;99.90;;;;;;5094805;28;20052;-62
2022/01/29 20:19:44;;;;;;;22.40;4.15;;;6.90;99.90;;;;;;5094621;28;20400;-63
2022/01/29 20:22:10;;;;;;;24.27;5.10;;;6.90;99.90;;;;;;5098718;28;20044;-63
2022/01/29 20:24:35;;;;;;;22.33;4.97;;;7.00;99.90;;;;;;5103082;28;20379;-62
2022/01/29 20:27:01;;;;;;;22.30;4.20;;;7.00;99.90;;;;;;5094167;28;20051;-62
2022/01/29 20:29:29;;;;;;;28.90;5.00;;;7.00;99.90;;;;;;5094205;28;20067;-62
2022/01/29 20:31:57;;;;;;;26.95;5.30;;;7.00;99.90;;;;;;5075960;28;20044;-62
2022/01/29 20:34:23;;;;;;;25.63;5.20;;;7.10;99.90;;;;;;5094213;28;20056;-63
2022/01/29 20:36:48;;;;;;;25.17;4.70;;;7.10;99.90;;;;;;5094220;28;20040;-62
2022/01/29 20:39:15;;;;;;;20.10;4.55;;;7.20;99.90;;;;;;5094619;28;20417;-63
2022/01/29 20:41:41;;;;;;;19.73;3.65;;;7.10;99.90;;;;;;5076208;28;20066;-62
2022/01/29 20:44:07;;;;;;;25.65;4.15;;;7.20;99.90;;;;;;5093876;28;20468;-62
2022/01/29 20:46:34;;;;;;;25.50;4.95;;;7.20;99.90;;;;;;5093993;28;20113;-62
2022/01/29 20:49:01;;;;;;;21.27;3.65;;;7.20;99.90;;;;;;5093925;28;20044;-62
2022/01/29 20:51:35;;;;;;;22.85;4.00;;;7.20;99.90;;;;;;5099600;28;20047;-62
2022/01/29 20:54:36;;;;;;;20.38;4.22;;;7.20;99.90;;;;;;5105023;28;20112;-62
2022/01/29 20:57:01;;;;;;;16.70;3.35;;;7.20;99.90;;;;;;5107539;28;20044;-62
2022/01/29 20:59:27;;;;;;;21.73;4.03;;;7.20;99.90;;;;;;5087134;28;20423;-62
2022/01/29 21:01:52;;;;;;;29.45;4.78;;;7.20;99.90;;;;;;5096303;28;20090;-64
2022/01/29 21:04:20;;;;;;;23.15;4.95;;;7.20;99.90;;;;;;5114116;28;20459;-62
2022/01/29 21:06:49;;;;;;;32.00;5.05;;;7.10;99.90;;;;;;5113779;28;20118;-63
2022/01/29 21:09:15;;;;;;;29.02;4.88;;;7.20;99.90;;;;;;5113946;28;20490;-63
2022/01/29 21:11:41;;;;;;;;;;;7.10;99.90;;;;;;5114447;28;20086;-62
2022/01/29 21:14:07;;;;;;;25.98;4.95;;;7.20;99.90;;;;;;5096307;28;19977;-62
2022/01/29 21:16:33;;;;;;;36.83;6.95;;;7.20;99.90;;;;;;5086313;28;20060;-63
2022/01/29 21:19:00;;;;;;;35.60;5.43;;;7.10;99.90;;;;;;5114023;28;20051;-62
2022/01/29 21:21:27;;;;;;;33.25;5.30;;;7.20;99.90;;;;;;5113957;28;20051;-62
2022/01/29 21:23:54;;;;;;;33.45;5.30;;;7.20;99.90;;;;;;5113884;28;20039;-62
2022/01/29 21:26:20;;;;;;;31.30;5.38;;;7.20;99.90;;;;;;5114531;28;20184;-62
2022/01/29 21:28:46;;;;;;;30.80;5.00;;;7.20;99.90;;;;;;5095664;28;20139;-62
2022/01/29 21:31:12;;;;;;;30.80;5.20;;;7.20;99.90;;;;;;5096240;28;20475;-62
2022/01/29 21:33:37;;;;;;;34.45;5.88;;;7.20;99.90;;;;;;5096700;28;20051;-62
2022/01/29 21:36:03;;;;;;;35.95;5.60;;;7.30;99.90;;;;;;5113844;28;20079;-62
2022/01/29 21:38:32;;;;;;;41.65;5.80;;;7.20;99.90;;;;;;5113678;28;20047;-62
2022/01/29 21:40:59;;;;;;;39.95;6.40;;;7.30;99.90;;;;;;5113687;28;20059;-62
2022/01/29 21:43:24;;;;;;;38.45;6.07;;;7.30;99.90;;;;;;5113668;28;20035;-63
2022/01/29 21:45:51;;;;;;;37.30;6.38;;;7.30;99.90;;;;;;5113749;28;20394;-62
2022/01/29 21:48:16;;;;;;;36.20;6.00;;;7.30;99.90;;;;;;5113946;28;20130;-62
2022/01/29 21:50:42;;;;;;;26.40;5.38;;;7.30;99.90;;;;;;5113698;28;20470;-64
2022/01/29 21:53:08;;;;;;;22.38;4.32;;;7.30;99.90;;;;;;5095736;28;20040;-62
2022/01/29 21:55:34;;;;;;;25.42;3.97;;;7.30;99.90;;;;;;5106915;28;20039;-62
2022/01/29 21:57:59;;;;;;;27.77;5.50;;;7.30;99.90;;;;;;5102567;28;20044;-62
2022/01/29 22:00:25;;;;;;;29.67;4.72;;;7.30;99.90;;;;;;5105395;28;20472;-63
2022/01/29 22:02:53;;;;;;;15.13;3.50;;;7.30;99.90;;;;;;5105317;28;20047;-62
2022/01/29 22:05:19;;;;;;;18.88;3.30;;;7.20;99.90;;;;;;5085823;28;20144;-61
2022/01/29 22:07:45;;;;;;;16.02;3.33;;;7.20;99.90;;;;;;5102337;28;20070;-62